Time;durP1;ratioP1;P1;durP2;ratioP2;P2;SDS_P1;SDS_P2;PMS_P1;PMS_P2;Temp;Humidity;BMP_temperature;BMP_pressure;BME280_temperature;BME280_humidity;BME280_pressure;Samples;Min_cycle;Max_cycle;Signal;HPM_P1;HPM_P2
2022/05/06 00:01:50;;;;;;;15.50;10.38;;;;;;;13.04;72.75;100695.97;30910764;28;103034;-73
2022/05/06 00:16:50;;;;;;;13.13;10.77;;;;;;;12.97;73.61;100699.50;30871207;28;97611;-73
2022/05/06 00:31:51;;;;;;;17.23;13.13;;;;;;;13.23;73.20;100693.03;30870446;28;96704;-72
2022/05/06 00:46:54;;;;;;;14.20;12.05;;;;;;;13.20;73.35;100711.09;30961869;28;97005;-73
2022/05/06 01:01:57;;;;;;;16.60;12.83;;;;;;;12.96;73.62;100714.72;30990821;28;98519;-73
2022/05/06 01:16:57;;;;;;;17.83;13.67;;;;;;;12.80;74.16;100709.44;30988417;28;96751;-73
2022/05/06 01:31:59;;;;;;;17.27;13.38;;;;;;;12.79;74.24;100719.25;30941021;28;105870;-73
2022/05/06 01:47:03;;;;;;;20.03;13.43;;;;;;;12.72;74.78;100720.16;30862261;28;96778;-73
2022/05/06 02:02:03;;;;;;;21.40;16.13;;;;;;;12.53;74.58;100719.50;30861047;28;97361;-73
2022/05/06 02:17:04;;;;;;;24.10;17.83;;;;;;;12.24;75.14;100736.09;30859595;28;96756;-73
2022/05/06 02:47:43;;;;;;;63.73;42.23;;;;;;;11.93;76.58;100747.38;30850178;28;96788;-73
2022/05/06 03:02:44;;;;;;;22.92;17.85;;;;;;;11.58;77.39;100750.16;30855390;28;97323;-73
2022/05/06 03:17:44;;;;;;;27.30;19.50;;;;;;;11.39;78.31;100766.47;30851343;28;99278;-74
2022/05/06 03:32:45;;;;;;;28.45;19.77;;;;;;;11.34;78.31;100769.59;30851623;28;96784;-74
2022/05/06 03:47:46;;;;;;;26.87;18.40;;;;;;;11.41;79.06;100794.63;30869849;28;97109;-74
2022/05/06 04:02:47;;;;;;;28.15;18.75;;;;;;;11.73;78.86;100809.09;30870888;28;96700;-73
2022/05/06 04:17:47;;;;;;;25.33;18.47;;;;;;;12.04;78.05;100829.03;30866985;28;96867;-74
2022/05/06 04:32:47;;;;;;;24.55;17.83;;;;;;;12.37;77.05;100843.28;30863991;28;114520;-75
2022/05/06 04:47:48;;;;;;;26.42;17.95;;;;;;;12.65;77.02;100867.00;30863251;28;114755;-74
2022/05/06 05:02:48;;;;;;;23.13;16.00;;;;;;;13.08;75.12;100872.13;30859822;28;97125;-72
2022/05/06 05:17:49;;;;;;;29.27;16.73;;;;;;;13.61;73.63;100880.56;30858434;28;97154;-72
2022/05/06 05:32:50;;;;;;;21.13;14.23;;;;;;;13.90;71.58;100887.13;30859507;28;97169;-73
2022/05/06 06:03:09;;;;;;;17.60;11.80;;;;;;;14.11;67.96;100911.47;30856503;28;97321;-73
2022/05/06 06:18:09;;;;;;;15.25;9.85;;;;;;;14.49;65.15;100913.38;30855417;28;98073;-73
2022/05/06 06:33:10;;;;;;;12.93;7.85;;;;;;;15.61;61.68;100907.38;30855276;28;97343;-73
2022/05/06 06:48:10;;;;;;;15.38;7.97;;;;;;;16.80;57.21;100910.75;30854022;28;97069;-73
2022/05/06 07:03:12;;;;;;;12.48;6.30;;;;;;;17.85;52.94;100903.63;30852516;28;96640;-74
2022/05/06 07:18:12;;;;;;;9.77;5.60;;;;;;;18.86;48.95;100926.28;30848423;28;97059;-75
2022/05/06 07:33:12;;;;;;;8.05;5.18;;;;;;;19.02;46.39;100946.66;30845813;28;113156;-74
2022/05/06 07:48:13;;;;;;;7.20;4.45;;;;;;;20.15;43.20;100950.19;30844275;28;96739;-75
2022/05/06 08:18:32;;;;;;;11.10;4.37;;;;;;;22.07;37.32;100955.25;30847446;28;97023;-75
2022/05/06 08:33:32;;;;;;;6.45;4.55;;;;;;;23.89;33.21;100971.19;30894856;28;96702;-74
2022/05/06 09:03:56;;;;;;;6.67;4.00;;;;;;;26.20;29.42;100991.63;30984620;28;97257;-74
2022/05/06 09:19:10;;;;;;;6.50;3.90;;;;;;;27.06;25.81;100977.16;30984862;28;97763;-75
2022/05/06 09:34:11;;;;;;;7.33;3.37;;;;;;;27.81;26.50;100971.63;30984178;28;97122;-70
2022/05/06 09:49:11;;;;;;;7.43;3.78;;;;;;;29.14;24.69;100951.06;30877039;28;97529;-68
2022/05/06 10:04:12;;;;;;;6.63;2.95;;;;;;;29.80;22.93;100935.53;30936171;28;96891;-68
2022/05/06 10:19:26;;;;;;;8.88;3.28;;;;;;;28.91;22.92;100944.22;30970288;28;97212;-72
2022/05/06 10:34:29;;;;;;;5.07;2.50;;;;;;;28.54;23.48;100939.78;30968209;28;97623;-69
2022/05/06 10:49:38;;;;;;;4.10;2.33;;;;;;;29.61;21.94;100942.72;30965740;28;97444;-68
2022/05/06 11:04:40;;;;;;;4.60;2.77;;;;;;;30.29;21.24;100947.66;30966753;28;96764;-68
2022/05/06 11:19:41;;;;;;;6.80;2.90;;;;;;;29.34;21.75;100916.47;30965022;28;97821;-70
2022/05/06 11:35:01;;;;;;;6.80;2.97;;;;;;;30.11;20.95;100899.66;30964744;28;97463;-69
2022/05/06 11:50:01;;;;;;;8.10;2.50;;;;;;;28.25;22.64;100904.69;30921982;28;98103;-72
2022/05/06 12:05:11;;;;;;;4.57;2.08;;;;;;;28.96;22.58;100900.31;30983715;28;96719;-69
2022/05/06 12:20:35;;;;;;;8.47;2.30;;;;;;;28.37;22.69;100891.56;30985843;28;96893;-69
2022/05/06 12:35:56;;;;;;;7.70;2.70;;;;;;;27.21;23.64;100886.19;30980441;28;97592;-68
2022/05/06 12:50:57;;;;;;;4.13;2.50;;;;;;;26.93;24.25;100885.50;30988033;28;97342;-73
2022/05/06 13:05:57;;;;;;;7.07;4.53;;;;;;;26.41;25.03;100875.19;30986262;28;112065;-71
2022/05/06 13:20:58;;;;;;;6.63;2.53;;;;;;;26.27;25.46;100863.88;30983231;28;96742;-68
2022/05/06 13:35:59;;;;;;;7.25;2.83;;;;;;;27.02;24.38;100853.84;30983730;28;96792;-69
2022/05/06 13:50:59;;;;;;;11.63;3.00;;;;;;;26.10;25.82;100836.72;30980616;28;97155;-72
2022/05/06 14:06:00;;;;;;;7.57;3.45;;;;;;;25.95;25.79;100835.44;30977567;28;96923;-68
2022/05/06 14:21:01;;;;;;;7.25;3.28;;;;;;;25.65;25.67;100828.56;30956947;28;97455;-71
2022/05/06 14:36:03;;;;;;;7.87;2.77;;;;;;;25.29;26.34;100819.94;30985037;28;96851;-76
2022/05/06 14:51:03;;;;;;;5.57;2.90;;;;;;;24.50;27.29;100818.25;30970825;28;97151;-78
2022/05/06 15:06:04;;;;;;;6.18;2.78;;;;;;;23.39;29.04;100809.41;30971983;28;97531;-70
2022/05/06 15:21:05;;;;;;;5.57;2.83;;;;;;;22.64;29.97;100809.09;31046316;28;96907;-72
2022/05/06 15:36:05;;;;;;;2.93;2.17;;;;;;;22.90;29.72;100804.25;31103416;28;96682;-72
2022/05/06 15:51:07;;;;;;;6.97;2.40;;;;;;;22.66;29.96;100800.72;31117235;28;97200;-69
2022/05/06 16:06:08;;;;;;;9.57;2.50;;;;;;;21.57;31.32;100789.00;31116500;28;96814;-69
2022/05/06 16:21:09;;;;;;;7.43;2.30;;;;;;;21.45;31.52;100793.50;31113036;28;97370;-71
2022/05/06 16:51:28;;;;;;;6.37;2.53;;;;;;;20.15;33.74;100782.47;30945804;28;96998;-78
2022/05/06 17:06:28;;;;;;;3.92;1.88;;;;;;;19.18;35.11;100788.75;30947858;28;97274;-72
2022/05/06 17:21:32;;;;;;;11.60;4.32;;;;;;;18.50;36.60;100771.00;30912685;28;97310;-78
2022/05/06 17:36:33;;;;;;;4.13;1.70;;;;;;;17.84;37.61;100788.75;30929462;28;96721;-75
2022/05/06 17:51:34;;;;;;;6.17;2.20;;;;;;;17.25;38.34;100806.38;30931342;28;98633;-74
2022/05/06 18:06:35;;;;;;;6.10;2.37;;;;;;;16.73;39.58;100808.47;30881565;28;96918;-69
2022/05/06 18:21:36;;;;;;;4.03;2.15;;;;;;;16.16;40.89;100816.47;30909917;28;102698;-69
2022/05/06 18:36:36;;;;;;;12.40;5.97;;;;;;;15.63;42.15;100818.56;30893563;28;96825;-80
2022/05/06 18:51:37;;;;;;;9.40;3.47;;;;;;;15.10;44.42;100835.59;30929159;28;96696;-74
2022/05/06 19:06:38;;;;;;;10.75;3.42;;;;;;;14.64;45.80;100846.44;30899366;28;96730;-75
2022/05/06 19:36:57;;;;;;;12.00;4.83;;;;;;;13.81;47.73;100857.72;30893079;28;96856;-73
2022/05/06 20:07:16;;;;;;;17.43;7.77;;;;;;;13.31;50.85;100866.91;30943738;28;97746;-78
2022/05/06 20:22:17;;;;;;;17.67;8.32;;;;;;;13.05;51.95;100867.97;30978409;28;103173;-76
2022/05/06 20:37:17;;;;;;;12.60;8.68;;;;;;;12.80;53.44;100864.50;30990927;28;97624;-72
2022/05/06 20:52:17;;;;;;;19.05;8.93;;;;;;;12.48;54.66;100861.66;30989704;28;96826;-78
2022/05/06 21:07:18;;;;;;;17.05;9.00;;;;;;;12.31;55.59;100876.00;30988651;28;97493;-76
2022/05/06 21:22:19;;;;;;;18.37;8.80;;;;;;;12.10;56.89;100857.78;31013642;28;96712;-80
2022/05/06 21:37:19;;;;;;;21.52;9.57;;;;;;;11.91;57.50;100869.53;30985936;28;97566;-80
2022/05/06 21:52:20;;;;;;;17.25;11.40;;;;;;;11.58;59.48;100861.41;30985620;28;96736;-77
2022/05/06 22:07:21;;;;;;;17.25;9.50;;;;;;;11.35;60.08;100861.97;30984138;28;96702;-74
2022/05/06 22:22:22;;;;;;;26.53;9.33;;;;;;;11.10;61.08;100863.66;30945618;28;96950;-75
2022/05/06 22:37:22;;;;;;;15.70;7.85;;;;;;;10.91;62.39;100852.22;30942671;28;97114;-83
2022/05/06 22:52:22;;;;;;;15.98;8.60;;;;;;;10.69;62.76;100842.91;30980905;28;99228;-80
2022/05/06 23:07:23;;;;;;;17.23;9.70;;;;;;;10.23;64.61;100842.13;30981065;28;111461;-80
2022/05/06 23:22:23;;;;;;;17.75;8.80;;;;;;;10.07;65.30;100842.81;30957277;28;102901;-72
2022/05/06 23:37:29;;;;;;;21.08;11.40;;;;;;;9.87;66.24;100834.97;30963388;28;97131;-80
2022/05/06 23:52:30;;;;;;;21.57;10.83;;;;;;;9.70;66.98;100820.63;30974539;28;96703;-76
